Bei Facebook empfehlenBei Twitter postenGoogle plusPinterest

Das Wetter im Erzgebirge am 23.07.2015

Wetter und Klima am 23.07.2015 Holzhau im Erzgebirge (630m ü.NN)
Letzte gemessene Temperatur und Uhrzeit der Messung23:45:00 Uhr16.30 °C
Temperatur (Maximum / Höchstwert) und Uhrzeit der Messung14:45:00 Uhr24.60 °C
Temperatur (Minimum / Tiefstwert) und Uhrzeit der Messung06:45:0015.40 °C
Errechneter Absolutwert der Temperaturschwankungen zwischen Tmin und Tmax des Tages9.20 K
Errechnete Tagesmitteltemperatur19.16042 °C
Gesamt - Niederschlag des Tages (in flüssiger Form)1.04 Liter / m²
Luftdruck (Maximum / Höchstwert) und Zeitpunkt der Messung23:15:00 Uhr1016.40 hPa
Luftdruck (Minimum / Tiefstwert) und Zeitpunkt der Messung02:30:00 Uhr1012.20 hPa
Errechneter Absolutwert der Luftdruckschwankungen des Tages4.20 hPa
Höchste gemessene Windgeschwindigkeit und Uhrzeit der Messung23:45:00 Uhr0.00 km/h
Errechnete Windhäufigkeit in Relation zu den Messwerten des Tages0.00000 %
Niedrigste Windkühle (Windchill) und Zeitpunkt der Messung06:45:00 Uhr15.40 °C
Taupunkt (Maximum / Höchstwert) und Uhrzeit der Messung09:45:00 Uhr16.80 °C
Taupunkt (Minimum / Tiefstwert) und Uhrzeit der Messung23:15:0012.70 °C
Anzahl der automatisch eingelesenen Messwerte 96

Detaillierte Wetter- und Klima- Messwerte für den 23.07.2015 in Holzhau im Erzgebirge (630m ü.NN)
ZeitTemperaturLuftdruckRel. LuftfeuchteWindWindrichtungWindchillTaupunktNiederschlag l/m²
23:45:0016.30 °C1016.10 hPa80.00 %12.80 °C1.04
23:30:0016.40 °C1016.20 hPa79.00 %12.80 °C1.04
23:15:0016.50 °C1016.40 hPa78.00 %12.70 °C1.04
23:00:0016.60 °C1016.20 hPa78.00 %12.80 °C1.04
22:45:0016.70 °C1016.30 hPa77.00 %12.70 °C1.04
22:30:0016.90 °C1016.10 hPa77.00 %12.80 °C1.04
22:15:0017.00 °C1016.30 hPa76.00 %12.70 °C1.04
22:00:0017.20 °C1016.10 hPa75.00 %12.70 °C1.04
21:45:0017.30 °C1016.10 hPa75.00 %12.80 °C1.04
21:30:0017.50 °C1015.90 hPa74.00 %12.80 °C1.04
21:15:0017.80 °C1015.90 hPa73.00 %12.90 °C1.04
21:00:0018.10 °C1015.70 hPa72.00 %13.00 °C1.04
20:45:0018.40 °C1015.70 hPa70.00 %12.80 °C1.04
20:30:0018.80 °C1015.20 hPa68.00 %12.80 °C1.04
20:15:0019.40 °C1015.20 hPa66.00 %12.90 °C1.04
20:00:0020.10 °C1015.30 hPa64.00 %13.10 °C1.04
19:45:0020.50 °C1015.20 hPa62.00 %13.00 °C1.04
19:30:0020.90 °C1015.10 hPa61.00 %13.10 °C1.04
19:15:0021.90 °C1015.10 hPa60.00 %13.80 °C1.04
19:00:0022.20 °C1015.20 hPa59.00 %13.80 °C1.04
18:45:0022.70 °C1015.20 hPa59.00 %14.30 °C1.04
18:30:0022.50 °C1015.10 hPa58.00 %13.80 °C1.04
18:15:0022.90 °C1015.20 hPa58.00 %14.20 °C1.04
18:00:0023.10 °C1015.20 hPa59.00 %14.70 °C1.04
17:45:0023.00 °C1015.30 hPa58.00 %14.30 °C1.04
17:30:0023.30 °C1015.40 hPa56.00 %14.00 °C1.04
17:15:0023.60 °C1015.60 hPa57.00 %14.60 °C1.04
17:00:0023.50 °C1015.50 hPa59.00 %15.00 °C1.04
16:45:0023.30 °C1015.50 hPa57.00 %14.30 °C1.04
16:30:0023.60 °C1015.80 hPa56.00 %14.30 °C1.04
16:15:0023.80 °C1015.80 hPa56.00 %14.50 °C1.04
16:00:0024.20 °C1015.60 hPa53.00 %14.00 °C1.04
15:45:0024.10 °C1015.50 hPa55.00 %14.50 °C1.04
15:30:0024.10 °C1015.70 hPa56.00 %14.80 °C1.04
15:15:0024.10 °C1015.70 hPa56.00 %14.80 °C1.04
15:00:0023.90 °C1015.70 hPa55.00 %14.30 °C1.04
14:45:0024.60 °C1015.80 hPa55.00 %15.00 °C1.04
14:30:0024.40 °C1016.00 hPa56.00 %15.10 °C1.04
14:15:0024.50 °C1015.80 hPa58.00 %15.70 °C1.04
14:00:0023.60 °C1015.80 hPa58.00 %14.90 °C1.04
13:45:0022.60 °C1015.80 hPa59.00 %14.20 °C1.04
13:30:0022.90 °C1015.90 hPa57.00 %13.90 °C1.04
13:15:0023.40 °C1016.00 hPa58.00 %14.70 °C1.04
13:00:0023.30 °C1015.90 hPa61.00 %15.40 °C1.04
12:45:0022.30 °C1015.90 hPa60.00 %14.20 °C1.04
12:30:0022.60 °C1015.80 hPa62.00 %15.00 °C1.04
12:15:0022.10 °C1015.80 hPa62.00 %14.50 °C1.04
12:00:0021.70 °C1015.90 hPa66.00 %15.10 °C1.04
11:45:0021.30 °C1015.80 hPa67.00 %14.90 °C1.04
11:30:0021.50 °C1015.80 hPa68.00 %15.30 °C1.04
11:15:0021.30 °C1015.70 hPa71.00 %15.80 °C1.04
11:00:0020.90 °C1015.50 hPa73.00 %15.90 °C1.04
10:45:0020.70 °C1015.70 hPa74.00 %15.90 °C1.04
10:30:0020.40 °C1015.50 hPa78.00 %16.40 °C1.04
10:15:0019.30 °C1015.50 hPa81.00 %16.00 °C1.04
10:00:0019.10 °C1015.10 hPa82.00 %16.00 °C1.04
09:45:0018.60 °C1015.00 hPa89.00 %16.80 °C1.04
09:30:0016.70 °C1015.10 hPa90.00 %15.10 °C1.04
09:15:0016.10 °C1015.10 hPa91.00 %14.60 °C1.04
09:00:0016.20 °C1014.70 hPa91.00 %14.70 °C1.04
08:45:0015.90 °C1014.60 hPa91.00 %14.40 °C1.04
08:30:0015.90 °C1014.50 hPa92.00 %14.60 °C1.04
08:15:0015.80 °C1014.30 hPa92.00 %14.50 °C1.04
08:00:0015.60 °C1014.70 hPa92.00 %14.30 °C1.04
07:45:0015.60 °C1014.50 hPa92.00 %14.30 °C1.04
07:30:0015.60 °C1014.30 hPa92.00 %14.30 °C1.04
07:15:0015.80 °C1013.80 hPa92.00 %14.50 °C1.04
07:00:0015.60 °C1013.60 hPa92.00 %14.30 °C1.04
06:45:0015.40 °C1013.70 hPa92.00 %14.10 °C1.04
06:30:0015.40 °C1013.60 hPa92.00 %14.10 °C1.04
06:15:0015.60 °C1013.40 hPa92.00 %14.30 °C1.04
06:00:0016.40 °C1013.60 hPa92.00 %15.10 °C1.04
05:45:0016.80 °C1013.30 hPa92.00 %15.50 °C1.04
05:30:0016.90 °C1013.10 hPa92.00 %15.60 °C0.52
05:15:0016.80 °C1012.90 hPa92.00 %15.50 °C0.52
05:00:0016.80 °C1012.80 hPa92.00 %15.50 °C0.52
04:45:0016.70 °C1012.80 hPa91.00 %15.20 °C0.52
04:30:0016.60 °C1012.80 hPa91.00 %15.10 °C0.52
04:15:0016.50 °C1012.80 hPa91.00 %15.00 °C0.52
04:00:0016.40 °C1012.60 hPa91.00 %14.90 °C0.52
03:45:0016.30 °C1012.60 hPa91.00 %14.80 °C0.52
03:30:0016.30 °C1012.40 hPa91.00 %14.80 °C0.52
03:15:0016.40 °C1012.60 hPa91.00 %14.90 °C0.52
03:00:0016.50 °C1012.60 hPa91.00 %15.00 °C0.52
02:45:0016.40 °C1012.40 hPa91.00 %14.90 °C0.52
02:30:0016.40 °C1012.20 hPa90.00 %14.80 °C0.52
02:15:0016.50 °C1012.40 hPa90.00 %14.90 °C0.52
02:00:0016.50 °C1012.70 hPa90.00 %14.90 °C0.52
01:45:0016.60 °C1012.80 hPa90.00 %15.00 °C0.52
01:30:0016.60 °C1012.80 hPa90.00 %15.00 °C0.52
01:15:0016.60 °C1012.90 hPa90.00 %15.00 °C0.52
01:00:0016.70 °C1012.40 hPa90.00 %15.10 °C0.52
00:45:0016.80 °C1013.00 hPa90.00 %15.20 °C0.52
00:30:0016.80 °C1013.30 hPa89.00 %15.00 °C0.52
00:15:0016.80 °C1013.90 hPa89.00 %15.00 °C0.52
00:00:0016.80 °C1014.00 hPa89.00 %15.00 °C 

Permanenter Link zu dieser Seite: Wetter im Erzgebirge am 23.07.2015
Performance-Info: Die Erstellung der Seite / Statistik(en) / Tabelle(n) erforderte 5 Datenbankserver-Abfrage(n) und dauerte 122 Millisekunden. (Dieser Messwert ist von der Gesamt-Auslastung des Servers abhängig.)
Erzgebirge - Wetter | Erzgebirge - Wetter (Mobilgeräte) | Komplette Klimadatenbank